sensor_id;sensor_type;location;lat;lon;timestamp;P1;durP1;ratioP1;P2;durP2;ratioP2
22650;SDS011;11492;42.646;23.400;2022-12-10T00:01:03;28.02;;;10.20;;
22650;SDS011;11492;42.646;23.400;2022-12-10T00:03:36;36.78;;;10.70;;
22650;SDS011;11492;42.646;23.400;2022-12-10T00:06:02;40.03;;;10.90;;
22650;SDS011;11492;42.646;23.400;2022-12-10T00:08:29;35.35;;;11.00;;
22650;SDS011;11492;42.646;23.400;2022-12-10T00:10:54;37.00;;;11.27;;
22650;SDS011;11492;42.646;23.400;2022-12-10T00:13:20;42.42;;;11.75;;
22650;SDS011;11492;42.646;23.400;2022-12-10T00:15:45;36.55;;;10.68;;
22650;SDS011;11492;42.646;23.400;2022-12-10T00:18:11;37.50;;;10.48;;
22650;SDS011;11492;42.646;23.400;2022-12-10T00:20:37;38.08;;;11.00;;
22650;SDS011;11492;42.646;23.400;2022-12-10T00:23:03;34.40;;;11.05;;
22650;SDS011;11492;42.646;23.400;2022-12-10T00:25:29;39.75;;;12.05;;
22650;SDS011;11492;42.646;23.400;2022-12-10T00:27:54;30.15;;;11.10;;
22650;SDS011;11492;42.646;23.400;2022-12-10T00:30:19;36.03;;;11.30;;
22650;SDS011;11492;42.646;23.400;2022-12-10T00:32:45;24.40;;;11.07;;
22650;SDS011;11492;42.646;23.400;2022-12-10T00:35:10;37.75;;;11.43;;
22650;SDS011;11492;42.646;23.400;2022-12-10T00:37:36;34.30;;;10.88;;
22650;SDS011;11492;42.646;23.400;2022-12-10T00:40:01;37.90;;;11.60;;
22650;SDS011;11492;42.646;23.400;2022-12-10T00:42:27;35.35;;;10.60;;
22650;SDS011;11492;42.646;23.400;2022-12-10T00:44:53;42.88;;;10.60;;
22650;SDS011;11492;42.646;23.400;2022-12-10T00:47:18;35.05;;;11.90;;
22650;SDS011;11492;42.646;23.400;2022-12-10T00:49:43;38.80;;;11.27;;
22650;SDS011;11492;42.646;23.400;2022-12-10T00:52:09;31.55;;;11.32;;
22650;SDS011;11492;42.646;23.400;2022-12-10T00:54:34;38.40;;;11.10;;
22650;SDS011;11492;42.646;23.400;2022-12-10T00:56:59;34.38;;;11.02;;
22650;SDS011;11492;42.646;23.400;2022-12-10T00:59:25;40.50;;;11.13;;
22650;SDS011;11492;42.646;23.400;2022-12-10T01:01:50;34.10;;;11.00;;
22650;SDS011;11492;42.646;23.400;2022-12-10T01:04:16;31.92;;;11.00;;
22650;SDS011;11492;42.646;23.400;2022-12-10T01:06:44;33.65;;;10.70;;
22650;SDS011;11492;42.646;23.400;2022-12-10T01:09:14;32.42;;;11.52;;
22650;SDS011;11492;42.646;23.400;2022-12-10T01:11:42;40.95;;;10.98;;
22650;SDS011;11492;42.646;23.400;2022-12-10T01:14:10;28.25;;;10.55;;
22650;SDS011;11492;42.646;23.400;2022-12-10T01:16:37;29.67;;;11.05;;
22650;SDS011;11492;42.646;23.400;2022-12-10T01:19:03;31.63;;;10.15;;
22650;SDS011;11492;42.646;23.400;2022-12-10T01:21:30;40.08;;;10.13;;
22650;SDS011;11492;42.646;23.400;2022-12-10T01:23:56;42.55;;;10.73;;
22650;SDS011;11492;42.646;23.400;2022-12-10T01:26:23;33.80;;;9.98;;
22650;SDS011;11492;42.646;23.400;2022-12-10T01:28:51;31.08;;;10.43;;
22650;SDS011;11492;42.646;23.400;2022-12-10T01:31:19;38.47;;;10.95;;
22650;SDS011;11492;42.646;23.400;2022-12-10T01:33:48;33.85;;;9.95;;
22650;SDS011;11492;42.646;23.400;2022-12-10T01:36:15;29.88;;;10.10;;
22650;SDS011;11492;42.646;23.400;2022-12-10T01:38:42;32.75;;;10.13;;
22650;SDS011;11492;42.646;23.400;2022-12-10T01:41:10;31.02;;;9.63;;
22650;SDS011;11492;42.646;23.400;2022-12-10T01:43:52;36.08;;;10.90;;
22650;SDS011;11492;42.646;23.400;2022-12-10T01:46:31;27.58;;;9.38;;
22650;SDS011;11492;42.646;23.400;2022-12-10T01:48:59;28.80;;;8.30;;
22650;SDS011;11492;42.646;23.400;2022-12-10T01:51:28;33.00;;;9.38;;
22650;SDS011;11492;42.646;23.400;2022-12-10T01:53:55;26.40;;;9.00;;
22650;SDS011;11492;42.646;23.400;2022-12-10T01:56:21;28.15;;;8.23;;
22650;SDS011;11492;42.646;23.400;2022-12-10T01:58:48;26.10;;;8.70;;
22650;SDS011;11492;42.646;23.400;2022-12-10T02:06:28;25.55;;;9.18;;
22650;SDS011;11492;42.646;23.400;2022-12-10T02:11:44;27.25;;;8.35;;
22650;SDS011;11492;42.646;23.400;2022-12-10T02:14:18;40.97;;;9.27;;
22650;SDS011;11492;42.646;23.400;2022-12-10T02:17:09;26.55;;;9.35;;
22650;SDS011;11492;42.646;23.400;2022-12-10T02:22:25;35.75;;;9.07;;
22650;SDS011;11492;42.646;23.400;2022-12-10T02:24:54;28.45;;;9.00;;
22650;SDS011;11492;42.646;23.400;2022-12-10T02:30:17;29.52;;;8.30;;
22650;SDS011;11492;42.646;23.400;2022-12-10T02:32:44;30.08;;;8.65;;
22650;SDS011;11492;42.646;23.400;2022-12-10T02:35:18;30.70;;;8.23;;
22650;SDS011;11492;42.646;23.400;2022-12-10T02:37:55;24.27;;;8.63;;
22650;SDS011;11492;42.646;23.400;2022-12-10T02:40:25;28.55;;;8.30;;
22650;SDS011;11492;42.646;23.400;2022-12-10T02:42:56;29.77;;;8.40;;
22650;SDS011;11492;42.646;23.400;2022-12-10T02:45:23;30.02;;;9.20;;
22650;SDS011;11492;42.646;23.400;2022-12-10T02:47:51;24.88;;;7.97;;
22650;SDS011;11492;42.646;23.400;2022-12-10T02:50:21;24.15;;;8.50;;
22650;SDS011;11492;42.646;23.400;2022-12-10T02:52:47;31.52;;;8.02;;
22650;SDS011;11492;42.646;23.400;2022-12-10T02:55:13;24.67;;;8.23;;
22650;SDS011;11492;42.646;23.400;2022-12-10T03:00:20;26.17;;;8.02;;
22650;SDS011;11492;42.646;23.400;2022-12-10T03:08:24;28.13;;;8.38;;
22650;SDS011;11492;42.646;23.400;2022-12-10T03:16:19;20.20;;;8.32;;
22650;SDS011;11492;42.646;23.400;2022-12-10T03:18:47;20.30;;;8.15;;
22650;SDS011;11492;42.646;23.400;2022-12-10T03:21:17;23.17;;;8.05;;
22650;SDS011;11492;42.646;23.400;2022-12-10T03:23:45;27.98;;;8.55;;
22650;SDS011;11492;42.646;23.400;2022-12-10T03:26:11;25.30;;;8.48;;
22650;SDS011;11492;42.646;23.400;2022-12-10T03:28:41;27.88;;;8.52;;
22650;SDS011;11492;42.646;23.400;2022-12-10T03:31:12;18.77;;;8.75;;
22650;SDS011;11492;42.646;23.400;2022-12-10T03:33:39;24.40;;;9.35;;
22650;SDS011;11492;42.646;23.400;2022-12-10T03:36:05;23.40;;;8.57;;
22650;SDS011;11492;42.646;23.400;2022-12-10T03:38:32;22.83;;;8.48;;
22650;SDS011;11492;42.646;23.400;2022-12-10T03:40:59;25.02;;;8.02;;
22650;SDS011;11492;42.646;23.400;2022-12-10T03:43:25;21.20;;;8.00;;
22650;SDS011;11492;42.646;23.400;2022-12-10T03:45:50;21.83;;;7.85;;
22650;SDS011;11492;42.646;23.400;2022-12-10T03:48:15;23.55;;;8.15;;
22650;SDS011;11492;42.646;23.400;2022-12-10T03:50:41;26.83;;;7.65;;
22650;SDS011;11492;42.646;23.400;2022-12-10T03:53:06;27.95;;;8.07;;
22650;SDS011;11492;42.646;23.400;2022-12-10T03:55:32;22.40;;;7.88;;
22650;SDS011;11492;42.646;23.400;2022-12-10T03:57:58;22.65;;;7.80;;
22650;SDS011;11492;42.646;23.400;2022-12-10T04:00:23;21.25;;;7.45;;
22650;SDS011;11492;42.646;23.400;2022-12-10T04:02:49;21.40;;;7.53;;
22650;SDS011;11492;42.646;23.400;2022-12-10T04:05:14;25.10;;;7.13;;
22650;SDS011;11492;42.646;23.400;2022-12-10T04:07:40;20.55;;;7.57;;
22650;SDS011;11492;42.646;23.400;2022-12-10T04:10:06;16.52;;;7.03;;
22650;SDS011;11492;42.646;23.400;2022-12-10T04:12:31;21.08;;;7.25;;
22650;SDS011;11492;42.646;23.400;2022-12-10T04:14:57;26.80;;;8.02;;
22650;SDS011;11492;42.646;23.400;2022-12-10T04:17:40;21.52;;;7.20;;
22650;SDS011;11492;42.646;23.400;2022-12-10T04:20:06;19.17;;;6.72;;
22650;SDS011;11492;42.646;23.400;2022-12-10T04:22:52;19.70;;;7.07;;
22650;SDS011;11492;42.646;23.400;2022-12-10T04:28:20;17.30;;;7.03;;
22650;SDS011;11492;42.646;23.400;2022-12-10T04:30:45;17.02;;;7.15;;
22650;SDS011;11492;42.646;23.400;2022-12-10T04:33:10;27.80;;;8.13;;
22650;SDS011;11492;42.646;23.400;2022-12-10T04:35:36;22.85;;;6.93;;
22650;SDS011;11492;42.646;23.400;2022-12-10T04:38:01;27.27;;;7.80;;
22650;SDS011;11492;42.646;23.400;2022-12-10T04:40:27;21.38;;;7.32;;
22650;SDS011;11492;42.646;23.400;2022-12-10T04:42:52;30.52;;;8.15;;
22650;SDS011;11492;42.646;23.400;2022-12-10T04:45:17;22.25;;;8.10;;
22650;SDS011;11492;42.646;23.400;2022-12-10T04:47:43;20.67;;;7.40;;
22650;SDS011;11492;42.646;23.400;2022-12-10T04:50:08;23.80;;;7.47;;
22650;SDS011;11492;42.646;23.400;2022-12-10T04:52:33;29.13;;;7.78;;
22650;SDS011;11492;42.646;23.400;2022-12-10T04:54:59;27.85;;;7.88;;
22650;SDS011;11492;42.646;23.400;2022-12-10T04:57:24;18.33;;;7.35;;
22650;SDS011;11492;42.646;23.400;2022-12-10T04:59:50;20.10;;;7.45;;
22650;SDS011;11492;42.646;23.400;2022-12-10T05:02:15;21.15;;;7.95;;
22650;SDS011;11492;42.646;23.400;2022-12-10T05:04:40;20.77;;;7.72;;
22650;SDS011;11492;42.646;23.400;2022-12-10T05:07:06;21.92;;;8.23;;
22650;SDS011;11492;42.646;23.400;2022-12-10T05:09:31;23.20;;;7.95;;
22650;SDS011;11492;42.646;23.400;2022-12-10T05:11:57;22.23;;;8.20;;
22650;SDS011;11492;42.646;23.400;2022-12-10T05:14:22;26.50;;;8.40;;
22650;SDS011;11492;42.646;23.400;2022-12-10T05:16:51;27.77;;;8.27;;
22650;SDS011;11492;42.646;23.400;2022-12-10T05:19:16;33.42;;;9.15;;
22650;SDS011;11492;42.646;23.400;2022-12-10T05:21:44;22.60;;;8.48;;
22650;SDS011;11492;42.646;23.400;2022-12-10T05:24:28;25.13;;;8.93;;
22650;SDS011;11492;42.646;23.400;2022-12-10T05:26:54;24.63;;;9.10;;
22650;SDS011;11492;42.646;23.400;2022-12-10T05:29:19;20.13;;;8.85;;
22650;SDS011;11492;42.646;23.400;2022-12-10T05:31:45;23.70;;;8.38;;
22650;SDS011;11492;42.646;23.400;2022-12-10T05:34:11;19.30;;;8.98;;
22650;SDS011;11492;42.646;23.400;2022-12-10T05:36:36;38.20;;;9.52;;
22650;SDS011;11492;42.646;23.400;2022-12-10T05:39:02;21.58;;;8.80;;
22650;SDS011;11492;42.646;23.400;2022-12-10T05:41:29;29.30;;;9.73;;
22650;SDS011;11492;42.646;23.400;2022-12-10T05:43:59;28.88;;;10.10;;
22650;SDS011;11492;42.646;23.400;2022-12-10T05:46:26;28.83;;;9.30;;
22650;SDS011;11492;42.646;23.400;2022-12-10T05:48:53;24.05;;;9.18;;
22650;SDS011;11492;42.646;23.400;2022-12-10T05:51:20;21.55;;;9.60;;
22650;SDS011;11492;42.646;23.400;2022-12-10T05:53:47;29.13;;;9.18;;
22650;SDS011;11492;42.646;23.400;2022-12-10T05:56:14;31.92;;;9.25;;
22650;SDS011;11492;42.646;23.400;2022-12-10T05:58:43;24.13;;;9.57;;
22650;SDS011;11492;42.646;23.400;2022-12-10T06:01:17;28.58;;;9.43;;
22650;SDS011;11492;42.646;23.400;2022-12-10T06:03:44;20.30;;;9.57;;
22650;SDS011;11492;42.646;23.400;2022-12-10T06:06:10;25.05;;;9.77;;
22650;SDS011;11492;42.646;23.400;2022-12-10T06:08:36;26.27;;;9.73;;
22650;SDS011;11492;42.646;23.400;2022-12-10T06:11:05;20.90;;;8.90;;
22650;SDS011;11492;42.646;23.400;2022-12-10T06:13:33;37.10;;;11.00;;
22650;SDS011;11492;42.646;23.400;2022-12-10T06:16:03;23.92;;;9.48;;
22650;SDS011;11492;42.646;23.400;2022-12-10T06:18:32;35.28;;;9.57;;
22650;SDS011;11492;42.646;23.400;2022-12-10T06:20:58;32.08;;;10.00;;
22650;SDS011;11492;42.646;23.400;2022-12-10T06:23:23;23.88;;;9.43;;
22650;SDS011;11492;42.646;23.400;2022-12-10T06:25:49;23.10;;;9.93;;
22650;SDS011;11492;42.646;23.400;2022-12-10T06:28:14;33.15;;;10.23;;
22650;SDS011;11492;42.646;23.400;2022-12-10T06:30:40;29.48;;;10.45;;
22650;SDS011;11492;42.646;23.400;2022-12-10T06:33:05;23.85;;;9.77;;
22650;SDS011;11492;42.646;23.400;2022-12-10T06:35:31;31.08;;;10.30;;
22650;SDS011;11492;42.646;23.400;2022-12-10T06:37:56;29.77;;;10.93;;
22650;SDS011;11492;42.646;23.400;2022-12-10T06:40:21;35.60;;;10.68;;
22650;SDS011;11492;42.646;23.400;2022-12-10T06:42:47;27.30;;;10.82;;
22650;SDS011;11492;42.646;23.400;2022-12-10T06:45:16;28.75;;;10.35;;
22650;SDS011;11492;42.646;23.400;2022-12-10T06:47:41;33.10;;;10.30;;
22650;SDS011;11492;42.646;23.400;2022-12-10T06:50:07;27.40;;;11.13;;
22650;SDS011;11492;42.646;23.400;2022-12-10T06:52:32;26.10;;;10.25;;
22650;SDS011;11492;42.646;23.400;2022-12-10T06:54:58;41.63;;;12.55;;
22650;SDS011;11492;42.646;23.400;2022-12-10T06:57:23;35.33;;;12.27;;
22650;SDS011;11492;42.646;23.400;2022-12-10T06:59:49;31.17;;;12.50;;
22650;SDS011;11492;42.646;23.400;2022-12-10T07:02:14;32.70;;;12.68;;
22650;SDS011;11492;42.646;23.400;2022-12-10T07:04:40;39.75;;;12.13;;
22650;SDS011;11492;42.646;23.400;2022-12-10T07:07:05;29.38;;;12.55;;
22650;SDS011;11492;42.646;23.400;2022-12-10T07:09:31;36.60;;;12.50;;
22650;SDS011;11492;42.646;23.400;2022-12-10T07:11:57;32.85;;;13.18;;
22650;SDS011;11492;42.646;23.400;2022-12-10T07:14:23;30.02;;;12.23;;
22650;SDS011;11492;42.646;23.400;2022-12-10T07:16:48;36.53;;;12.38;;
22650;SDS011;11492;42.646;23.400;2022-12-10T07:19:14;32.20;;;12.90;;
22650;SDS011;11492;42.646;23.400;2022-12-10T07:21:40;27.80;;;12.13;;
22650;SDS011;11492;42.646;23.400;2022-12-10T07:24:08;33.50;;;12.07;;
22650;SDS011;11492;42.646;23.400;2022-12-10T07:26:37;35.13;;;13.25;;
22650;SDS011;11492;42.646;23.400;2022-12-10T07:29:04;37.13;;;13.65;;
22650;SDS011;11492;42.646;23.400;2022-12-10T07:31:31;30.30;;;13.68;;
22650;SDS011;11492;42.646;23.400;2022-12-10T07:33:57;31.80;;;12.88;;
22650;SDS011;11492;42.646;23.400;2022-12-10T07:36:23;34.83;;;13.60;;
22650;SDS011;11492;42.646;23.400;2022-12-10T07:38:50;35.83;;;14.70;;
22650;SDS011;11492;42.646;23.400;2022-12-10T07:41:19;37.38;;;14.43;;
22650;SDS011;11492;42.646;23.400;2022-12-10T07:43:45;37.08;;;15.63;;
22650;SDS011;11492;42.646;23.400;2022-12-10T07:48:41;38.78;;;14.50;;
22650;SDS011;11492;42.646;23.400;2022-12-10T07:51:08;39.35;;;14.82;;
22650;SDS011;11492;42.646;23.400;2022-12-10T07:53:33;38.05;;;14.95;;
22650;SDS011;11492;42.646;23.400;2022-12-10T07:55:59;32.13;;;14.02;;
22650;SDS011;11492;42.646;23.400;2022-12-10T07:58:25;31.45;;;13.63;;
22650;SDS011;11492;42.646;23.400;2022-12-10T08:00:50;24.55;;;12.63;;
22650;SDS011;11492;42.646;23.400;2022-12-10T08:03:16;28.25;;;13.27;;
22650;SDS011;11492;42.646;23.400;2022-12-10T08:05:41;31.55;;;12.57;;
22650;SDS011;11492;42.646;23.400;2022-12-10T08:08:07;33.42;;;13.65;;
22650;SDS011;11492;42.646;23.400;2022-12-10T08:10:33;26.35;;;12.82;;
22650;SDS011;11492;42.646;23.400;2022-12-10T08:12:59;28.67;;;13.40;;
22650;SDS011;11492;42.646;23.400;2022-12-10T08:15:24;27.52;;;13.73;;
22650;SDS011;11492;42.646;23.400;2022-12-10T08:17:50;46.65;;;18.05;;
22650;SDS011;11492;42.646;23.400;2022-12-10T08:20:15;28.33;;;13.38;;
22650;SDS011;11492;42.646;23.400;2022-12-10T08:22:41;33.95;;;13.93;;
22650;SDS011;11492;42.646;23.400;2022-12-10T08:25:06;24.50;;;12.35;;
22650;SDS011;11492;42.646;23.400;2022-12-10T08:27:32;27.70;;;12.07;;
22650;SDS011;11492;42.646;23.400;2022-12-10T08:29:57;33.15;;;12.40;;
22650;SDS011;11492;42.646;23.400;2022-12-10T08:32:23;37.95;;;13.30;;
22650;SDS011;11492;42.646;23.400;2022-12-10T08:34:48;34.33;;;13.23;;
22650;SDS011;11492;42.646;23.400;2022-12-10T08:37:14;29.00;;;12.07;;
22650;SDS011;11492;42.646;23.400;2022-12-10T08:39:39;34.03;;;12.05;;
22650;SDS011;11492;42.646;23.400;2022-12-10T08:42:05;30.60;;;11.30;;
22650;SDS011;11492;42.646;23.400;2022-12-10T08:44:30;33.65;;;13.30;;
22650;SDS011;11492;42.646;23.400;2022-12-10T08:46:56;35.55;;;13.00;;
22650;SDS011;11492;42.646;23.400;2022-12-10T08:49:21;27.35;;;13.32;;
22650;SDS011;11492;42.646;23.400;2022-12-10T08:51:47;29.30;;;13.95;;
22650;SDS011;11492;42.646;23.400;2022-12-10T08:54:12;29.58;;;12.70;;
22650;SDS011;11492;42.646;23.400;2022-12-10T08:56:37;31.17;;;13.65;;
22650;SDS011;11492;42.646;23.400;2022-12-10T08:59:04;29.70;;;12.30;;
22650;SDS011;11492;42.646;23.400;2022-12-10T09:01:30;25.60;;;12.52;;
22650;SDS011;11492;42.646;23.400;2022-12-10T09:03:56;31.63;;;13.27;;
22650;SDS011;11492;42.646;23.400;2022-12-10T09:06:22;29.05;;;13.02;;
22650;SDS011;11492;42.646;23.400;2022-12-10T09:08:51;29.98;;;14.15;;
22650;SDS011;11492;42.646;23.400;2022-12-10T09:11:18;32.42;;;15.13;;
22650;SDS011;11492;42.646;23.400;2022-12-10T09:13:46;35.15;;;16.13;;
22650;SDS011;11492;42.646;23.400;2022-12-10T09:16:12;40.92;;;17.13;;
22650;SDS011;11492;42.646;23.400;2022-12-10T09:18:38;37.63;;;17.42;;
22650;SDS011;11492;42.646;23.400;2022-12-10T09:21:04;45.03;;;20.45;;
22650;SDS011;11492;42.646;23.400;2022-12-10T09:23:34;42.05;;;18.63;;
22650;SDS011;11492;42.646;23.400;2022-12-10T09:25:59;46.53;;;20.02;;
22650;SDS011;11492;42.646;23.400;2022-12-10T09:28:25;41.47;;;21.23;;
22650;SDS011;11492;42.646;23.400;2022-12-10T09:30:57;37.20;;;20.05;;
22650;SDS011;11492;42.646;23.400;2022-12-10T09:33:24;41.88;;;17.75;;
22650;SDS011;11492;42.646;23.400;2022-12-10T09:35:50;34.30;;;18.95;;
22650;SDS011;11492;42.646;23.400;2022-12-10T09:38:15;40.75;;;16.73;;
22650;SDS011;11492;42.646;23.400;2022-12-10T09:41:02;39.50;;;18.10;;
22650;SDS011;11492;42.646;23.400;2022-12-10T09:44:13;44.42;;;18.52;;
22650;SDS011;11492;42.646;23.400;2022-12-10T09:46:26;33.33;;;15.68;;
22650;SDS011;11492;42.646;23.400;2022-12-10T09:54:18;36.00;;;16.83;;
22650;SDS011;11492;42.646;23.400;2022-12-10T09:56:46;35.70;;;16.95;;
22650;SDS011;11492;42.646;23.400;2022-12-10T09:59:59;33.80;;;15.60;;
22650;SDS011;11492;42.646;23.400;2022-12-10T10:04:50;36.13;;;16.17;;
22650;SDS011;11492;42.646;23.400;2022-12-10T10:07:25;35.05;;;16.42;;
22650;SDS011;11492;42.646;23.400;2022-12-10T10:09:57;37.47;;;17.42;;
22650;SDS011;11492;42.646;23.400;2022-12-10T10:12:30;38.83;;;16.20;;
22650;SDS011;11492;42.646;23.400;2022-12-10T10:14:56;35.22;;;16.33;;
22650;SDS011;11492;42.646;23.400;2022-12-10T10:17:30;33.20;;;16.15;;
22650;SDS011;11492;42.646;23.400;2022-12-10T10:20:00;33.05;;;14.32;;
22650;SDS011;11492;42.646;23.400;2022-12-10T10:22:26;32.80;;;14.07;;
22650;SDS011;11492;42.646;23.400;2022-12-10T10:24:51;28.20;;;12.13;;
22650;SDS011;11492;42.646;23.400;2022-12-10T10:29:50;29.58;;;11.98;;
22650;SDS011;11492;42.646;23.400;2022-12-10T10:32:22;29.60;;;13.15;;
22650;SDS011;11492;42.646;23.400;2022-12-10T10:34:58;30.10;;;13.50;;
22650;SDS011;11492;42.646;23.400;2022-12-10T10:37:25;27.13;;;12.80;;
22650;SDS011;11492;42.646;23.400;2022-12-10T10:39:53;23.33;;;12.45;;
22650;SDS011;11492;42.646;23.400;2022-12-10T10:42:38;30.27;;;12.75;;
22650;SDS011;11492;42.646;23.400;2022-12-10T10:48:15;24.45;;;12.88;;
22650;SDS011;11492;42.646;23.400;2022-12-10T10:50:43;22.98;;;13.10;;
22650;SDS011;11492;42.646;23.400;2022-12-10T10:56:27;31.58;;;13.13;;
22650;SDS011;11492;42.646;23.400;2022-12-10T10:58:58;25.50;;;12.68;;
22650;SDS011;11492;42.646;23.400;2022-12-10T11:01:50;26.50;;;12.38;;
22650;SDS011;11492;42.646;23.400;2022-12-10T11:07:00;23.52;;;11.70;;
22650;SDS011;11492;42.646;23.400;2022-12-10T11:09:29;89.03;;;20.17;;
22650;SDS011;11492;42.646;23.400;2022-12-10T11:11:58;32.20;;;11.90;;
22650;SDS011;11492;42.646;23.400;2022-12-10T11:14:31;21.60;;;9.60;;
22650;SDS011;11492;42.646;23.400;2022-12-10T11:17:03;31.00;;;11.32;;
22650;SDS011;11492;42.646;23.400;2022-12-10T11:19:44;22.60;;;7.80;;
22650;SDS011;11492;42.646;23.400;2022-12-10T11:22:22;20.33;;;7.93;;
22650;SDS011;11492;42.646;23.400;2022-12-10T11:24:49;21.48;;;7.70;;
22650;SDS011;11492;42.646;23.400;2022-12-10T11:27:18;23.02;;;8.27;;
22650;SDS011;11492;42.646;23.400;2022-12-10T11:30:08;17.65;;;7.78;;
22650;SDS011;11492;42.646;23.400;2022-12-10T11:32:39;20.00;;;6.80;;
22650;SDS011;11492;42.646;23.400;2022-12-10T11:35:16;18.95;;;7.70;;
22650;SDS011;11492;42.646;23.400;2022-12-10T11:51:40;15.38;;;5.45;;
22650;SDS011;11492;42.646;23.400;2022-12-10T11:56:37;11.18;;;4.68;;
22650;SDS011;11492;42.646;23.400;2022-12-10T11:59:13;16.58;;;5.20;;
22650;SDS011;11492;42.646;23.400;2022-12-10T12:09:46;14.48;;;5.38;;
22650;SDS011;11492;42.646;23.400;2022-12-10T12:12:51;17.40;;;5.60;;
22650;SDS011;11492;42.646;23.400;2022-12-10T12:21:36;20.92;;;5.82;;
22650;SDS011;11492;42.646;23.400;2022-12-10T12:26:30;20.10;;;6.43;;
22650;SDS011;11492;42.646;23.400;2022-12-10T12:29:02;15.63;;;6.45;;
22650;SDS011;11492;42.646;23.400;2022-12-10T12:31:39;14.38;;;6.28;;
22650;SDS011;11492;42.646;23.400;2022-12-10T12:34:19;19.83;;;6.75;;
22650;SDS011;11492;42.646;23.400;2022-12-10T12:36:49;19.95;;;7.07;;
22650;SDS011;11492;42.646;23.400;2022-12-10T12:39:31;21.80;;;7.68;;
22650;SDS011;11492;42.646;23.400;2022-12-10T12:47:44;31.17;;;9.20;;
22650;SDS011;11492;42.646;23.400;2022-12-10T12:52:58;21.70;;;8.80;;
22650;SDS011;11492;42.646;23.400;2022-12-10T12:55:34;20.38;;;8.18;;
22650;SDS011;11492;42.646;23.400;2022-12-10T13:00:49;17.92;;;6.22;;
22650;SDS011;11492;42.646;23.400;2022-12-10T13:16:35;26.17;;;9.07;;
22650;SDS011;11492;42.646;23.400;2022-12-10T13:27:10;30.67;;;10.15;;
22650;SDS011;11492;42.646;23.400;2022-12-10T13:32:23;31.73;;;8.77;;
22650;SDS011;11492;42.646;23.400;2022-12-10T13:37:33;33.72;;;10.45;;
22650;SDS011;11492;42.646;23.400;2022-12-10T13:46:20;25.85;;;12.43;;
22650;SDS011;11492;42.646;23.400;2022-12-10T13:48:49;36.47;;;12.55;;
22650;SDS011;11492;42.646;23.400;2022-12-10T13:51:20;33.60;;;13.60;;
22650;SDS011;11492;42.646;23.400;2022-12-10T13:54:02;26.40;;;11.20;;
22650;SDS011;11492;42.646;23.400;2022-12-10T13:56:46;30.08;;;12.30;;
22650;SDS011;11492;42.646;23.400;2022-12-10T13:59:31;26.17;;;11.85;;
22650;SDS011;11492;42.646;23.400;2022-12-10T14:07:52;38.67;;;15.75;;
22650;SDS011;11492;42.646;23.400;2022-12-10T14:10:22;30.80;;;11.80;;
22650;SDS011;11492;42.646;23.400;2022-12-10T14:12:52;26.58;;;11.77;;
22650;SDS011;11492;42.646;23.400;2022-12-10T14:15:25;33.85;;;12.75;;
22650;SDS011;11492;42.646;23.400;2022-12-10T14:17:55;26.23;;;11.70;;
22650;SDS011;11492;42.646;23.400;2022-12-10T14:20:29;27.02;;;11.25;;
22650;SDS011;11492;42.646;23.400;2022-12-10T14:22:57;28.58;;;11.27;;
22650;SDS011;11492;42.646;23.400;2022-12-10T14:25:48;31.52;;;11.48;;
22650;SDS011;11492;42.646;23.400;2022-12-10T14:28:14;32.60;;;11.48;;
22650;SDS011;11492;42.646;23.400;2022-12-10T14:30:42;31.58;;;11.18;;
22650;SDS011;11492;42.646;23.400;2022-12-10T14:33:10;26.58;;;10.50;;
22650;SDS011;11492;42.646;23.400;2022-12-10T14:35:40;26.33;;;11.23;;
22650;SDS011;11492;42.646;23.400;2022-12-10T14:38:12;30.83;;;11.95;;
22650;SDS011;11492;42.646;23.400;2022-12-10T14:40:43;32.97;;;11.30;;
22650;SDS011;11492;42.646;23.400;2022-12-10T14:43:13;29.20;;;11.32;;
22650;SDS011;11492;42.646;23.400;2022-12-10T14:48:23;104.75;;;56.60;;
22650;SDS011;11492;42.646;23.400;2022-12-10T14:50:49;97.22;;;46.60;;
22650;SDS011;11492;42.646;23.400;2022-12-10T14:53:18;85.03;;;45.88;;
22650;SDS011;11492;42.646;23.400;2022-12-10T14:55:50;70.68;;;33.58;;
22650;SDS011;11492;42.646;23.400;2022-12-10T14:58:43;53.95;;;24.67;;
22650;SDS011;11492;42.646;23.400;2022-12-10T15:01:37;32.65;;;13.65;;
22650;SDS011;11492;42.646;23.400;2022-12-10T15:04:06;26.00;;;8.57;;
22650;SDS011;11492;42.646;23.400;2022-12-10T15:06:40;26.90;;;8.45;;
22650;SDS011;11492;42.646;23.400;2022-12-10T15:09:11;19.80;;;6.32;;
22650;SDS011;11492;42.646;23.400;2022-12-10T15:11:40;18.60;;;5.25;;
22650;SDS011;11492;42.646;23.400;2022-12-10T15:14:05;23.55;;;6.22;;
22650;SDS011;11492;42.646;23.400;2022-12-10T15:16:41;13.07;;;5.15;;
22650;SDS011;11492;42.646;23.400;2022-12-10T15:19:16;24.15;;;8.23;;
22650;SDS011;11492;42.646;23.400;2022-12-10T15:24:45;47.10;;;26.55;;
22650;SDS011;11492;42.646;23.400;2022-12-10T15:27:20;129.15;;;74.38;;
22650;SDS011;11492;42.646;23.400;2022-12-10T15:29:48;26.90;;;9.75;;
22650;SDS011;11492;42.646;23.400;2022-12-10T15:32:15;27.40;;;10.93;;
22650;SDS011;11492;42.646;23.400;2022-12-10T15:35:05;30.45;;;11.57;;
22650;SDS011;11492;42.646;23.400;2022-12-10T15:37:38;30.17;;;12.48;;
22650;SDS011;11492;42.646;23.400;2022-12-10T15:40:06;31.10;;;13.77;;
22650;SDS011;11492;42.646;23.400;2022-12-10T15:42:46;37.50;;;14.82;;
22650;SDS011;11492;42.646;23.400;2022-12-10T15:45:16;42.47;;;15.95;;
22650;SDS011;11492;42.646;23.400;2022-12-10T15:47:56;55.42;;;24.88;;
22650;SDS011;11492;42.646;23.400;2022-12-10T15:50:23;63.83;;;32.20;;
22650;SDS011;11492;42.646;23.400;2022-12-10T15:52:50;188.98;;;109.57;;
22650;SDS011;11492;42.646;23.400;2022-12-10T15:55:15;109.05;;;64.00;;
22650;SDS011;11492;42.646;23.400;2022-12-10T15:57:41;157.27;;;86.65;;
22650;SDS011;11492;42.646;23.400;2022-12-10T16:00:20;92.63;;;46.13;;
22650;SDS011;11492;42.646;23.400;2022-12-10T16:07:47;89.53;;;50.20;;
22650;SDS011;11492;42.646;23.400;2022-12-10T16:10:14;194.13;;;109.50;;
22650;SDS011;11492;42.646;23.400;2022-12-10T16:12:42;143.13;;;68.07;;
22650;SDS011;11492;42.646;23.400;2022-12-10T16:15:20;154.07;;;83.70;;
22650;SDS011;11492;42.646;23.400;2022-12-10T16:17:49;285.17;;;149.45;;
22650;SDS011;11492;42.646;23.400;2022-12-10T16:20:23;402.40;;;238.18;;
22650;SDS011;11492;42.646;23.400;2022-12-10T16:22:51;105.75;;;56.80;;
22650;SDS011;11492;42.646;23.400;2022-12-10T16:25:17;59.78;;;31.30;;
22650;SDS011;11492;42.646;23.400;2022-12-10T16:27:43;30.35;;;13.38;;
22650;SDS011;11492;42.646;23.400;2022-12-10T16:30:19;27.42;;;13.43;;
22650;SDS011;11492;42.646;23.400;2022-12-10T16:32:49;34.30;;;15.00;;
22650;SDS011;11492;42.646;23.400;2022-12-10T16:35:16;58.85;;;27.20;;
22650;SDS011;11492;42.646;23.400;2022-12-10T16:37:42;28.00;;;11.57;;
22650;SDS011;11492;42.646;23.400;2022-12-10T16:40:10;81.15;;;40.53;;
22650;SDS011;11492;42.646;23.400;2022-12-10T16:42:37;101.95;;;44.92;;
22650;SDS011;11492;42.646;23.400;2022-12-10T16:45:08;38.25;;;16.63;;
22650;SDS011;11492;42.646;23.400;2022-12-10T16:50:22;100.28;;;45.65;;
22650;SDS011;11492;42.646;23.400;2022-12-10T16:52:48;181.27;;;94.40;;